sensor_id;sensor_type;location;lat;lon;timestamp;P1;durP1;ratioP1;P2;durP2;ratioP2
48550;SDS011;34397;51.176;6.738;2023-04-24T00:00:46;0.73;;;0.55;;
48550;SDS011;34397;51.176;6.738;2023-04-24T00:03:18;0.70;;;0.55;;
48550;SDS011;34397;51.176;6.738;2023-04-24T00:05:51;2.75;;;1.05;;
48550;SDS011;34397;51.176;6.738;2023-04-24T00:08:24;1.10;;;0.52;;
48550;SDS011;34397;51.176;6.738;2023-04-24T00:10:56;0.75;;;0.70;;
48550;SDS011;34397;51.176;6.738;2023-04-24T00:13:28;0.77;;;0.63;;
48550;SDS011;34397;51.176;6.738;2023-04-24T00:16:00;1.80;;;0.60;;
48550;SDS011;34397;51.176;6.738;2023-04-24T00:18:32;1.70;;;0.68;;
48550;SDS011;34397;51.176;6.738;2023-04-24T00:21:04;2.63;;;0.82;;
48550;SDS011;34397;51.176;6.738;2023-04-24T00:23:37;0.75;;;0.63;;
48550;SDS011;34397;51.176;6.738;2023-04-24T00:26:09;0.88;;;0.65;;
48550;SDS011;34397;51.176;6.738;2023-04-24T00:28:41;0.75;;;0.60;;
48550;SDS011;34397;51.176;6.738;2023-04-24T00:31:16;2.42;;;0.68;;
48550;SDS011;34397;51.176;6.738;2023-04-24T00:33:49;0.80;;;0.73;;
48550;SDS011;34397;51.176;6.738;2023-04-24T00:36:21;0.95;;;0.70;;
48550;SDS011;34397;51.176;6.738;2023-04-24T00:38:54;1.63;;;0.80;;
48550;SDS011;34397;51.176;6.738;2023-04-24T00:41:26;1.05;;;0.88;;
48550;SDS011;34397;51.176;6.738;2023-04-24T00:43:58;0.85;;;0.60;;
48550;SDS011;34397;51.176;6.738;2023-04-24T00:46:30;0.80;;;0.60;;
48550;SDS011;34397;51.176;6.738;2023-04-24T00:49:03;2.13;;;0.70;;
48550;SDS011;34397;51.176;6.738;2023-04-24T00:51:36;1.13;;;0.82;;
48550;SDS011;34397;51.176;6.738;2023-04-24T00:54:09;1.50;;;1.00;;
48550;SDS011;34397;51.176;6.738;2023-04-24T00:56:41;1.75;;;0.90;;
48550;SDS011;34397;51.176;6.738;2023-04-24T00:59:15;1.45;;;0.80;;
48550;SDS011;34397;51.176;6.738;2023-04-24T01:01:48;2.20;;;1.33;;
48550;SDS011;34397;51.176;6.738;2023-04-24T01:04:20;1.55;;;1.10;;
48550;SDS011;34397;51.176;6.738;2023-04-24T01:06:52;3.72;;;1.60;;
48550;SDS011;34397;51.176;6.738;2023-04-24T01:09:27;5.30;;;1.70;;
48550;SDS011;34397;51.176;6.738;2023-04-24T01:11:59;2.63;;;1.50;;
48550;SDS011;34397;51.176;6.738;2023-04-24T01:17:03;4.18;;;2.13;;
48550;SDS011;34397;51.176;6.738;2023-04-24T01:22:09;4.28;;;2.30;;
48550;SDS011;34397;51.176;6.738;2023-04-24T01:24:43;4.50;;;2.40;;
48550;SDS011;34397;51.176;6.738;2023-04-24T01:27:19;5.20;;;2.53;;
48550;SDS011;34397;51.176;6.738;2023-04-24T01:29:51;6.75;;;3.08;;
48550;SDS011;34397;51.176;6.738;2023-04-24T01:32:23;4.80;;;2.88;;
48550;SDS011;34397;51.176;6.738;2023-04-24T01:34:56;6.38;;;3.80;;
48550;SDS011;34397;51.176;6.738;2023-04-24T01:40:03;6.03;;;3.50;;
48550;SDS011;34397;51.176;6.738;2023-04-24T01:42:36;5.15;;;3.30;;
48550;SDS011;34397;51.176;6.738;2023-04-24T01:45:10;6.20;;;3.47;;
48550;SDS011;34397;51.176;6.738;2023-04-24T01:47:43;6.57;;;3.70;;
48550;SDS011;34397;51.176;6.738;2023-04-24T01:50:16;5.57;;;4.00;;
48550;SDS011;34397;51.176;6.738;2023-04-24T01:52:50;6.28;;;3.72;;
48550;SDS011;34397;51.176;6.738;2023-04-24T01:55:21;5.93;;;4.00;;
48550;SDS011;34397;51.176;6.738;2023-04-24T01:57:54;5.63;;;3.97;;
48550;SDS011;34397;51.176;6.738;2023-04-24T02:00:27;5.72;;;4.43;;
48550;SDS011;34397;51.176;6.738;2023-04-24T02:02:59;7.05;;;4.60;;
48550;SDS011;34397;51.176;6.738;2023-04-24T02:05:31;7.40;;;4.22;;
48550;SDS011;34397;51.176;6.738;2023-04-24T02:08:05;6.63;;;4.20;;
48550;SDS011;34397;51.176;6.738;2023-04-24T02:10:36;5.57;;;4.00;;
48550;SDS011;34397;51.176;6.738;2023-04-24T02:13:09;6.60;;;4.13;;
48550;SDS011;34397;51.176;6.738;2023-04-24T02:15:41;6.72;;;4.00;;
48550;SDS011;34397;51.176;6.738;2023-04-24T02:18:13;6.28;;;4.32;;
48550;SDS011;34397;51.176;6.738;2023-04-24T02:23:18;7.03;;;4.57;;
48550;SDS011;34397;51.176;6.738;2023-04-24T02:25:50;5.88;;;4.53;;
48550;SDS011;34397;51.176;6.738;2023-04-24T02:30:54;8.13;;;5.28;;
48550;SDS011;34397;51.176;6.738;2023-04-24T02:33:26;6.10;;;4.82;;
48550;SDS011;34397;51.176;6.738;2023-04-24T02:35:58;7.68;;;5.13;;
48550;SDS011;34397;51.176;6.738;2023-04-24T02:38:31;10.77;;;4.90;;
48550;SDS011;34397;51.176;6.738;2023-04-24T02:41:04;7.10;;;4.60;;
48550;SDS011;34397;51.176;6.738;2023-04-24T02:43:37;8.38;;;5.60;;
48550;SDS011;34397;51.176;6.738;2023-04-24T02:46:08;7.72;;;4.97;;
48550;SDS011;34397;51.176;6.738;2023-04-24T02:48:40;9.13;;;6.13;;
48550;SDS011;34397;51.176;6.738;2023-04-24T02:51:12;7.82;;;5.82;;
48550;SDS011;34397;51.176;6.738;2023-04-24T02:53:45;8.57;;;5.50;;
48550;SDS011;34397;51.176;6.738;2023-04-24T02:56:19;12.00;;;5.57;;
48550;SDS011;34397;51.176;6.738;2023-04-24T02:58:51;10.52;;;5.50;;
48550;SDS011;34397;51.176;6.738;2023-04-24T03:01:23;10.82;;;5.75;;
48550;SDS011;34397;51.176;6.738;2023-04-24T03:03:55;8.20;;;5.35;;
48550;SDS011;34397;51.176;6.738;2023-04-24T03:06:27;6.75;;;5.68;;
48550;SDS011;34397;51.176;6.738;2023-04-24T03:09:00;11.40;;;5.32;;
48550;SDS011;34397;51.176;6.738;2023-04-24T03:11:33;10.50;;;5.55;;
48550;SDS011;34397;51.176;6.738;2023-04-24T03:14:05;8.57;;;5.20;;
48550;SDS011;34397;51.176;6.738;2023-04-24T03:16:39;9.57;;;4.78;;
48550;SDS011;34397;51.176;6.738;2023-04-24T03:19:10;8.07;;;4.78;;
48550;SDS011;34397;51.176;6.738;2023-04-24T03:21:43;9.02;;;4.90;;
48550;SDS011;34397;51.176;6.738;2023-04-24T03:24:16;8.55;;;4.90;;
48550;SDS011;34397;51.176;6.738;2023-04-24T03:26:48;6.82;;;4.80;;
48550;SDS011;34397;51.176;6.738;2023-04-24T03:29:20;8.23;;;5.35;;
48550;SDS011;34397;51.176;6.738;2023-04-24T03:31:52;9.40;;;5.70;;
48550;SDS011;34397;51.176;6.738;2023-04-24T03:34:24;11.07;;;4.97;;
48550;SDS011;34397;51.176;6.738;2023-04-24T03:36:56;9.35;;;4.93;;
48550;SDS011;34397;51.176;6.738;2023-04-24T03:39:29;11.82;;;5.72;;
48550;SDS011;34397;51.176;6.738;2023-04-24T03:42:01;8.80;;;4.85;;
48550;SDS011;34397;51.176;6.738;2023-04-24T03:44:33;8.80;;;5.68;;
48550;SDS011;34397;51.176;6.738;2023-04-24T03:47:05;8.30;;;5.28;;
48550;SDS011;34397;51.176;6.738;2023-04-24T03:49:37;10.65;;;5.88;;
48550;SDS011;34397;51.176;6.738;2023-04-24T03:52:09;6.40;;;4.97;;
48550;SDS011;34397;51.176;6.738;2023-04-24T03:54:44;10.63;;;5.32;;
48550;SDS011;34397;51.176;6.738;2023-04-24T03:57:17;10.80;;;5.20;;
48550;SDS011;34397;51.176;6.738;2023-04-24T03:59:50;11.88;;;5.60;;
48550;SDS011;34397;51.176;6.738;2023-04-24T04:02:23;9.38;;;5.20;;
48550;SDS011;34397;51.176;6.738;2023-04-24T04:04:55;7.07;;;4.93;;
48550;SDS011;34397;51.176;6.738;2023-04-24T04:07:30;10.20;;;5.57;;
48550;SDS011;34397;51.176;6.738;2023-04-24T04:10:03;13.70;;;5.32;;
48550;SDS011;34397;51.176;6.738;2023-04-24T04:12:37;8.32;;;5.50;;
48550;SDS011;34397;51.176;6.738;2023-04-24T04:15:09;8.45;;;5.30;;
48550;SDS011;34397;51.176;6.738;2023-04-24T04:17:41;8.30;;;5.30;;
48550;SDS011;34397;51.176;6.738;2023-04-24T04:20:13;8.75;;;5.20;;
48550;SDS011;34397;51.176;6.738;2023-04-24T04:22:45;10.10;;;5.00;;
48550;SDS011;34397;51.176;6.738;2023-04-24T04:25:19;8.43;;;5.03;;
48550;SDS011;34397;51.176;6.738;2023-04-24T04:27:53;9.05;;;4.88;;
48550;SDS011;34397;51.176;6.738;2023-04-24T04:30:25;12.40;;;4.90;;
48550;SDS011;34397;51.176;6.738;2023-04-24T04:32:59;7.88;;;4.93;;
48550;SDS011;34397;51.176;6.738;2023-04-24T04:35:31;7.78;;;4.95;;
48550;SDS011;34397;51.176;6.738;2023-04-24T04:38:03;6.95;;;4.55;;
48550;SDS011;34397;51.176;6.738;2023-04-24T04:40:39;7.82;;;5.18;;
48550;SDS011;34397;51.176;6.738;2023-04-24T04:43:12;7.57;;;4.72;;
48550;SDS011;34397;51.176;6.738;2023-04-24T04:45:44;8.02;;;4.53;;
48550;SDS011;34397;51.176;6.738;2023-04-24T04:48:18;6.70;;;4.47;;
48550;SDS011;34397;51.176;6.738;2023-04-24T04:50:50;6.88;;;4.65;;
48550;SDS011;34397;51.176;6.738;2023-04-24T04:53:23;12.77;;;5.07;;
48550;SDS011;34397;51.176;6.738;2023-04-24T04:55:57;5.78;;;4.88;;
48550;SDS011;34397;51.176;6.738;2023-04-24T04:58:29;8.45;;;4.70;;
48550;SDS011;34397;51.176;6.738;2023-04-24T05:01:01;7.57;;;4.47;;
48550;SDS011;34397;51.176;6.738;2023-04-24T05:03:33;5.53;;;4.40;;
48550;SDS011;34397;51.176;6.738;2023-04-24T05:06:06;6.10;;;4.07;;
48550;SDS011;34397;51.176;6.738;2023-04-24T05:08:38;6.32;;;4.53;;
48550;SDS011;34397;51.176;6.738;2023-04-24T05:11:11;6.82;;;4.13;;
48550;SDS011;34397;51.176;6.738;2023-04-24T05:13:43;7.43;;;4.55;;
48550;SDS011;34397;51.176;6.738;2023-04-24T05:16:15;5.28;;;3.83;;
48550;SDS011;34397;51.176;6.738;2023-04-24T05:18:47;7.25;;;4.43;;
48550;SDS011;34397;51.176;6.738;2023-04-24T05:21:19;5.30;;;4.18;;
48550;SDS011;34397;51.176;6.738;2023-04-24T05:23:54;5.15;;;3.83;;
48550;SDS011;34397;51.176;6.738;2023-04-24T05:26:28;7.18;;;3.97;;
48550;SDS011;34397;51.176;6.738;2023-04-24T05:29:00;6.40;;;4.55;;
48550;SDS011;34397;51.176;6.738;2023-04-24T05:31:32;6.68;;;4.63;;
48550;SDS011;34397;51.176;6.738;2023-04-24T05:34:04;7.80;;;4.80;;
48550;SDS011;34397;51.176;6.738;2023-04-24T05:36:36;9.10;;;5.85;;
48550;SDS011;34397;51.176;6.738;2023-04-24T05:39:08;8.65;;;5.20;;
48550;SDS011;34397;51.176;6.738;2023-04-24T05:41:42;5.32;;;4.10;;
48550;SDS011;34397;51.176;6.738;2023-04-24T05:44:14;7.47;;;4.50;;
48550;SDS011;34397;51.176;6.738;2023-04-24T05:46:52;7.18;;;4.70;;
48550;SDS011;34397;51.176;6.738;2023-04-24T05:49:25;6.38;;;4.60;;
48550;SDS011;34397;51.176;6.738;2023-04-24T05:51:57;9.38;;;5.38;;
48550;SDS011;34397;51.176;6.738;2023-04-24T05:54:29;7.50;;;4.85;;
48550;SDS011;34397;51.176;6.738;2023-04-24T05:57:02;6.32;;;4.55;;
48550;SDS011;34397;51.176;6.738;2023-04-24T05:59:37;5.30;;;4.45;;
48550;SDS011;34397;51.176;6.738;2023-04-24T06:02:09;6.43;;;4.30;;
48550;SDS011;34397;51.176;6.738;2023-04-24T06:04:41;5.93;;;4.03;;
48550;SDS011;34397;51.176;6.738;2023-04-24T06:07:13;5.50;;;3.63;;
48550;SDS011;34397;51.176;6.738;2023-04-24T06:09:45;6.95;;;4.30;;
48550;SDS011;34397;51.176;6.738;2023-04-24T06:12:18;6.43;;;4.35;;
48550;SDS011;34397;51.176;6.738;2023-04-24T06:14:50;6.78;;;4.10;;
48550;SDS011;34397;51.176;6.738;2023-04-24T06:17:22;5.28;;;3.80;;
48550;SDS011;34397;51.176;6.738;2023-04-24T06:19:54;4.80;;;3.47;;
48550;SDS011;34397;51.176;6.738;2023-04-24T06:22:26;4.93;;;3.28;;
48550;SDS011;34397;51.176;6.738;2023-04-24T06:24:59;5.88;;;3.67;;
48550;SDS011;34397;51.176;6.738;2023-04-24T06:27:32;3.78;;;3.30;;
48550;SDS011;34397;51.176;6.738;2023-04-24T06:30:05;5.55;;;3.50;;
48550;SDS011;34397;51.176;6.738;2023-04-24T06:32:39;5.40;;;3.53;;
48550;SDS011;34397;51.176;6.738;2023-04-24T06:35:11;6.32;;;3.78;;
48550;SDS011;34397;51.176;6.738;2023-04-24T06:37:43;5.28;;;3.67;;
48550;SDS011;34397;51.176;6.738;2023-04-24T06:40:15;4.63;;;3.38;;
48550;SDS011;34397;51.176;6.738;2023-04-24T06:42:49;5.63;;;3.72;;
48550;SDS011;34397;51.176;6.738;2023-04-24T06:45:21;4.07;;;2.80;;
48550;SDS011;34397;51.176;6.738;2023-04-24T06:47:53;5.10;;;3.35;;
48550;SDS011;34397;51.176;6.738;2023-04-24T06:50:25;4.68;;;2.80;;
48550;SDS011;34397;51.176;6.738;2023-04-24T06:52:57;4.18;;;3.00;;
48550;SDS011;34397;51.176;6.738;2023-04-24T06:55:29;3.10;;;2.42;;
48550;SDS011;34397;51.176;6.738;2023-04-24T06:58:02;3.92;;;2.72;;
48550;SDS011;34397;51.176;6.738;2023-04-24T07:00:34;4.35;;;3.15;;
48550;SDS011;34397;51.176;6.738;2023-04-24T07:03:06;6.13;;;3.00;;
48550;SDS011;34397;51.176;6.738;2023-04-24T07:05:38;3.67;;;2.38;;
48550;SDS011;34397;51.176;6.738;2023-04-24T07:08:10;3.35;;;2.17;;
48550;SDS011;34397;51.176;6.738;2023-04-24T07:10:42;4.10;;;2.35;;
48550;SDS011;34397;51.176;6.738;2023-04-24T07:13:16;2.63;;;2.08;;
48550;SDS011;34397;51.176;6.738;2023-04-24T07:15:48;2.20;;;1.60;;
48550;SDS011;34397;51.176;6.738;2023-04-24T07:18:22;2.30;;;1.67;;
48550;SDS011;34397;51.176;6.738;2023-04-24T07:20:54;1.88;;;1.58;;
48550;SDS011;34397;51.176;6.738;2023-04-24T07:23:26;1.38;;;1.15;;
48550;SDS011;34397;51.176;6.738;2023-04-24T07:25:58;2.53;;;1.42;;
48550;SDS011;34397;51.176;6.738;2023-04-24T07:28:31;1.40;;;1.10;;
48550;SDS011;34397;51.176;6.738;2023-04-24T07:31:03;1.40;;;1.00;;
48550;SDS011;34397;51.176;6.738;2023-04-24T07:33:35;1.92;;;0.77;;
48550;SDS011;34397;51.176;6.738;2023-04-24T07:36:07;1.90;;;0.63;;
48550;SDS011;34397;51.176;6.738;2023-04-24T07:38:45;0.75;;;0.30;;
48550;SDS011;34397;51.176;6.738;2023-04-24T07:41:17;0.88;;;0.30;;
48550;SDS011;34397;51.176;6.738;2023-04-24T07:43:51;0.20;;;0.10;;
48550;SDS011;34397;51.176;6.738;2023-04-24T07:46:24;1.83;;;0.20;;
48550;SDS011;34397;51.176;6.738;2023-04-24T07:48:59;0.70;;;0.25;;
48550;SDS011;34397;51.176;6.738;2023-04-24T07:51:32;0.50;;;0.20;;
48550;SDS011;34397;51.176;6.738;2023-04-24T07:54:08;0.10;;;0.10;;
48550;SDS011;34397;51.176;6.738;2023-04-24T07:56:40;0.73;;;0.15;;
48550;SDS011;34397;51.176;6.738;2023-04-24T07:59:15;1.17;;;0.40;;
48550;SDS011;34397;51.176;6.738;2023-04-24T08:01:47;0.40;;;0.22;;
48550;SDS011;34397;51.176;6.738;2023-04-24T08:04:19;0.85;;;0.17;;
48550;SDS011;34397;51.176;6.738;2023-04-24T08:06:58;0.32;;;0.10;;
48550;SDS011;34397;51.176;6.738;2023-04-24T08:09:30;1.13;;;0.20;;
48550;SDS011;34397;51.176;6.738;2023-04-24T08:12:02;0.20;;;0.15;;
48550;SDS011;34397;51.176;6.738;2023-04-24T08:17:23;0.85;;;0.70;;
48550;SDS011;34397;51.176;6.738;2023-04-24T08:19:55;1.27;;;1.10;;
48550;SDS011;34397;51.176;6.738;2023-04-24T08:22:37;3.88;;;1.27;;
48550;SDS011;34397;51.176;6.738;2023-04-24T08:25:23;3.33;;;1.40;;
48550;SDS011;34397;51.176;6.738;2023-04-24T08:27:55;4.32;;;1.50;;
48550;SDS011;34397;51.176;6.738;2023-04-24T08:30:29;2.42;;;1.92;;
48550;SDS011;34397;51.176;6.738;2023-04-24T08:33:00;2.10;;;1.55;;
48550;SDS011;34397;51.176;6.738;2023-04-24T08:35:32;2.53;;;1.67;;
48550;SDS011;34397;51.176;6.738;2023-04-24T08:38:07;2.97;;;1.88;;
48550;SDS011;34397;51.176;6.738;2023-04-24T08:40:39;3.60;;;1.50;;
48550;SDS011;34397;51.176;6.738;2023-04-24T08:43:18;3.03;;;1.60;;
48550;SDS011;34397;51.176;6.738;2023-04-24T08:45:56;3.38;;;1.30;;
48550;SDS011;34397;51.176;6.738;2023-04-24T08:48:34;1.77;;;0.98;;
48550;SDS011;34397;51.176;6.738;2023-04-24T08:51:07;3.13;;;1.40;;
48550;SDS011;34397;51.176;6.738;2023-04-24T08:53:40;1.10;;;0.90;;
48550;SDS011;34397;51.176;6.738;2023-04-24T08:56:12;2.40;;;1.20;;
48550;SDS011;34397;51.176;6.738;2023-04-24T08:58:44;2.05;;;1.20;;
48550;SDS011;34397;51.176;6.738;2023-04-24T09:01:19;1.85;;;1.30;;
48550;SDS011;34397;51.176;6.738;2023-04-24T09:03:51;2.40;;;1.30;;
48550;SDS011;34397;51.176;6.738;2023-04-24T09:06:24;2.88;;;0.88;;
48550;SDS011;34397;51.176;6.738;2023-04-24T09:08:57;1.70;;;1.30;;
48550;SDS011;34397;51.176;6.738;2023-04-24T09:11:33;2.30;;;1.30;;
48550;SDS011;34397;51.176;6.738;2023-04-24T09:14:05;1.88;;;1.35;;
48550;SDS011;34397;51.176;6.738;2023-04-24T09:16:40;2.33;;;1.58;;
48550;SDS011;34397;51.176;6.738;2023-04-24T09:19:13;3.67;;;1.80;;
48550;SDS011;34397;51.176;6.738;2023-04-24T09:21:45;2.65;;;2.03;;
48550;SDS011;34397;51.176;6.738;2023-04-24T09:24:18;3.45;;;2.45;;
48550;SDS011;34397;51.176;6.738;2023-04-24T09:26:55;3.35;;;2.33;;
48550;SDS011;34397;51.176;6.738;2023-04-24T09:29:29;2.92;;;1.98;;
48550;SDS011;34397;51.176;6.738;2023-04-24T09:35:10;3.70;;;2.40;;
48550;SDS011;34397;51.176;6.738;2023-04-24T09:37:46;4.03;;;2.20;;
48550;SDS011;34397;51.176;6.738;2023-04-24T09:40:20;6.65;;;2.20;;
48550;SDS011;34397;51.176;6.738;2023-04-24T09:42:54;3.05;;;1.92;;
48550;SDS011;34397;51.176;6.738;2023-04-24T09:45:27;4.97;;;2.63;;
48550;SDS011;34397;51.176;6.738;2023-04-24T09:48:03;8.32;;;2.70;;
48550;SDS011;34397;51.176;6.738;2023-04-24T09:50:37;5.82;;;3.83;;
48550;SDS011;34397;51.176;6.738;2023-04-24T09:53:10;8.45;;;3.92;;
48550;SDS011;34397;51.176;6.738;2023-04-24T09:55:42;8.70;;;4.47;;
48550;SDS011;34397;51.176;6.738;2023-04-24T09:58:18;7.22;;;3.85;;
48550;SDS011;34397;51.176;6.738;2023-04-24T10:00:56;7.05;;;3.72;;
48550;SDS011;34397;51.176;6.738;2023-04-24T10:03:29;6.18;;;3.92;;
48550;SDS011;34397;51.176;6.738;2023-04-24T10:06:03;8.25;;;3.70;;
48550;SDS011;34397;51.176;6.738;2023-04-24T10:08:38;6.50;;;3.45;;
48550;SDS011;34397;51.176;6.738;2023-04-24T10:11:10;6.32;;;3.50;;
48550;SDS011;34397;51.176;6.738;2023-04-24T10:13:43;7.38;;;3.35;;
48550;SDS011;34397;51.176;6.738;2023-04-24T10:16:15;7.75;;;3.10;;
48550;SDS011;34397;51.176;6.738;2023-04-24T10:18:47;6.63;;;3.40;;
48550;SDS011;34397;51.176;6.738;2023-04-24T10:21:21;8.52;;;3.47;;
48550;SDS011;34397;51.176;6.738;2023-04-24T10:23:54;6.70;;;3.50;;
48550;SDS011;34397;51.176;6.738;2023-04-24T10:26:26;5.50;;;3.50;;
48550;SDS011;34397;51.176;6.738;2023-04-24T10:28:59;7.00;;;3.17;;
48550;SDS011;34397;51.176;6.738;2023-04-24T10:31:32;8.15;;;3.35;;
48550;SDS011;34397;51.176;6.738;2023-04-24T10:34:05;5.57;;;3.13;;
48550;SDS011;34397;51.176;6.738;2023-04-24T10:36:40;6.68;;;3.10;;
48550;SDS011;34397;51.176;6.738;2023-04-24T10:39:16;6.57;;;3.17;;
48550;SDS011;34397;51.176;6.738;2023-04-24T10:41:49;10.50;;;3.97;;
48550;SDS011;34397;51.176;6.738;2023-04-24T10:44:21;6.03;;;2.83;;
48550;SDS011;34397;51.176;6.738;2023-04-24T10:46:55;5.72;;;2.33;;
48550;SDS011;34397;51.176;6.738;2023-04-24T10:49:30;9.90;;;2.50;;
48550;SDS011;34397;51.176;6.738;2023-04-24T10:52:04;7.40;;;2.53;;
48550;SDS011;34397;51.176;6.738;2023-04-24T10:54:36;3.95;;;1.52;;
48550;SDS011;34397;51.176;6.738;2023-04-24T10:57:27;6.25;;;2.50;;
48550;SDS011;34397;51.176;6.738;2023-04-24T11:00:10;6.10;;;2.40;;
48550;SDS011;34397;51.176;6.738;2023-04-24T11:02:47;4.70;;;2.38;;
48550;SDS011;34397;51.176;6.738;2023-04-24T11:05:21;5.40;;;2.03;;
48550;SDS011;34397;51.176;6.738;2023-04-24T11:08:11;6.53;;;2.05;;
48550;SDS011;34397;51.176;6.738;2023-04-24T11:10:44;9.20;;;2.22;;
48550;SDS011;34397;51.176;6.738;2023-04-24T11:13:17;7.22;;;2.25;;
48550;SDS011;34397;51.176;6.738;2023-04-24T11:16:12;5.45;;;2.50;;
48550;SDS011;34397;51.176;6.738;2023-04-24T11:18:45;7.50;;;2.17;;
48550;SDS011;34397;51.176;6.738;2023-04-24T11:21:24;5.20;;;1.75;;
48550;SDS011;34397;51.176;6.738;2023-04-24T11:23:57;6.47;;;1.85;;
48550;SDS011;34397;51.176;6.738;2023-04-24T11:26:29;9.07;;;2.53;;
48550;SDS011;34397;51.176;6.738;2023-04-24T11:29:07;5.50;;;1.65;;
48550;SDS011;34397;51.176;6.738;2023-04-24T11:31:40;6.90;;;2.00;;
48550;SDS011;34397;51.176;6.738;2023-04-24T11:34:20;8.25;;;2.28;;
48550;SDS011;34397;51.176;6.738;2023-04-24T11:36:53;6.57;;;1.98;;
48550;SDS011;34397;51.176;6.738;2023-04-24T11:39:26;7.13;;;2.30;;
48550;SDS011;34397;51.176;6.738;2023-04-24T11:42:01;5.05;;;2.13;;
48550;SDS011;34397;51.176;6.738;2023-04-24T11:44:37;6.97;;;1.80;;
48550;SDS011;34397;51.176;6.738;2023-04-24T11:47:09;7.25;;;2.53;;
48550;SDS011;34397;51.176;6.738;2023-04-24T11:49:41;5.30;;;2.05;;
48550;SDS011;34397;51.176;6.738;2023-04-24T11:52:15;5.60;;;2.00;;
48550;SDS011;34397;51.176;6.738;2023-04-24T11:54:49;7.88;;;2.22;;
48550;SDS011;34397;51.176;6.738;2023-04-24T11:57:21;7.68;;;1.98;;
48550;SDS011;34397;51.176;6.738;2023-04-24T11:59:57;9.35;;;2.30;;
48550;SDS011;34397;51.176;6.738;2023-04-24T12:02:32;8.77;;;2.05;;
48550;SDS011;34397;51.176;6.738;2023-04-24T12:05:05;5.55;;;1.88;;
48550;SDS011;34397;51.176;6.738;2023-04-24T12:07:39;4.00;;;1.65;;
48550;SDS011;34397;51.176;6.738;2023-04-24T12:10:19;5.78;;;1.73;;
48550;SDS011;34397;51.176;6.738;2023-04-24T12:12:51;4.93;;;1.52;;
48550;SDS011;34397;51.176;6.738;2023-04-24T12:17:56;9.65;;;1.70;;
48550;SDS011;34397;51.176;6.738;2023-04-24T12:20:29;7.30;;;1.70;;
48550;SDS011;34397;51.176;6.738;2023-04-24T12:23:02;4.45;;;1.42;;
48550;SDS011;34397;51.176;6.738;2023-04-24T12:25:36;4.53;;;1.35;;
48550;SDS011;34397;51.176;6.738;2023-04-24T12:28:11;4.07;;;1.27;;
48550;SDS011;34397;51.176;6.738;2023-04-24T12:30:44;3.53;;;1.00;;
48550;SDS011;34397;51.176;6.738;2023-04-24T12:33:19;4.03;;;0.95;;
48550;SDS011;34397;51.176;6.738;2023-04-24T12:35:53;2.40;;;1.00;;
48550;SDS011;34397;51.176;6.738;2023-04-24T12:41:04;3.38;;;1.17;;
48550;SDS011;34397;51.176;6.738;2023-04-24T12:43:37;2.55;;;1.02;;
48550;SDS011;34397;51.176;6.738;2023-04-24T12:46:22;1.38;;;0.80;;
48550;SDS011;34397;51.176;6.738;2023-04-24T12:48:54;4.53;;;0.88;;
48550;SDS011;34397;51.176;6.738;2023-04-24T12:51:26;1.55;;;0.80;;
48550;SDS011;34397;51.176;6.738;2023-04-24T12:53:58;2.72;;;1.00;;
48550;SDS011;34397;51.176;6.738;2023-04-24T12:56:31;3.80;;;0.70;;
48550;SDS011;34397;51.176;6.738;2023-04-24T12:59:03;2.88;;;1.00;;
48550;SDS011;34397;51.176;6.738;2023-04-24T13:01:35;4.05;;;0.80;;
48550;SDS011;34397;51.176;6.738;2023-04-24T13:04:07;2.75;;;1.10;;
48550;SDS011;34397;51.176;6.738;2023-04-24T13:06:39;3.10;;;0.90;;
48550;SDS011;34397;51.176;6.738;2023-04-24T13:09:12;3.05;;;0.95;;
48550;SDS011;34397;51.176;6.738;2023-04-24T13:11:45;2.55;;;0.90;;
48550;SDS011;34397;51.176;6.738;2023-04-24T13:14:20;3.58;;;1.00;;
48550;SDS011;34397;51.176;6.738;2023-04-24T13:16:52;6.82;;;1.20;;
48550;SDS011;34397;51.176;6.738;2023-04-24T13:19:23;4.65;;;1.20;;
48550;SDS011;34397;51.176;6.738;2023-04-24T13:21:56;2.63;;;0.90;;
48550;SDS011;34397;51.176;6.738;2023-04-24T13:24:29;2.70;;;1.42;;
48550;SDS011;34397;51.176;6.738;2023-04-24T13:27:02;4.38;;;0.77;;
48550;SDS011;34397;51.176;6.738;2023-04-24T13:29:34;2.45;;;1.00;;
48550;SDS011;34397;51.176;6.738;2023-04-24T13:32:07;2.42;;;0.88;;
48550;SDS011;34397;51.176;6.738;2023-04-24T13:37:11;3.90;;;1.00;;
48550;SDS011;34397;51.176;6.738;2023-04-24T13:39:43;2.53;;;1.00;;
48550;SDS011;34397;51.176;6.738;2023-04-24T13:42:16;2.75;;;1.00;;
48550;SDS011;34397;51.176;6.738;2023-04-24T13:44:48;4.63;;;0.82;;
48550;SDS011;34397;51.176;6.738;2023-04-24T13:47:21;2.70;;;1.02;;
48550;SDS011;34397;51.176;6.738;2023-04-24T13:49:52;4.65;;;1.25;;
48550;SDS011;34397;51.176;6.738;2023-04-24T13:52:24;3.55;;;1.20;;
48550;SDS011;34397;51.176;6.738;2023-04-24T13:54:56;3.17;;;0.93;;
48550;SDS011;34397;51.176;6.738;2023-04-24T13:57:30;1.77;;;1.00;;
48550;SDS011;34397;51.176;6.738;2023-04-24T14:00:02;2.95;;;1.20;;
48550;SDS011;34397;51.176;6.738;2023-04-24T14:02:39;3.15;;;0.77;;
48550;SDS011;34397;51.176;6.738;2023-04-24T14:05:11;5.15;;;1.00;;
48550;SDS011;34397;51.176;6.738;2023-04-24T14:07:44;4.32;;;0.90;;
48550;SDS011;34397;51.176;6.738;2023-04-24T14:10:15;2.97;;;0.90;;
48550;SDS011;34397;51.176;6.738;2023-04-24T14:12:50;3.35;;;1.05;;
48550;SDS011;34397;51.176;6.738;2023-04-24T14:15:23;3.13;;;0.90;;
48550;SDS011;34397;51.176;6.738;2023-04-24T14:17:54;4.03;;;1.00;;
48550;SDS011;34397;51.176;6.738;2023-04-24T14:20:26;2.05;;;0.70;;
48550;SDS011;34397;51.176;6.738;2023-04-24T14:22:58;1.67;;;0.80;;
48550;SDS011;34397;51.176;6.738;2023-04-24T14:25:30;1.77;;;0.55;;
48550;SDS011;34397;51.176;6.738;2023-04-24T14:28:03;4.30;;;1.10;;
48550;SDS011;34397;51.176;6.738;2023-04-24T14:30:37;1.73;;;0.50;;
48550;SDS011;34397;51.176;6.738;2023-04-24T14:33:13;1.60;;;0.65;;
48550;SDS011;34397;51.176;6.738;2023-04-24T14:35:51;5.68;;;1.20;;
48550;SDS011;34397;51.176;6.738;2023-04-24T14:38:23;1.75;;;0.63;;
48550;SDS011;34397;51.176;6.738;2023-04-24T14:40:55;2.35;;;0.90;;
48550;SDS011;34397;51.176;6.738;2023-04-24T14:43:29;5.60;;;0.98;;
48550;SDS011;34397;51.176;6.738;2023-04-24T14:46:01;3.08;;;0.80;;
48550;SDS011;34397;51.176;6.738;2023-04-24T14:48:33;3.03;;;0.73;;
48550;SDS011;34397;51.176;6.738;2023-04-24T14:51:05;1.40;;;0.55;;
48550;SDS011;34397;51.176;6.738;2023-04-24T14:53:37;5.82;;;1.20;;
48550;SDS011;34397;51.176;6.738;2023-04-24T14:56:09;2.10;;;0.70;;
48550;SDS011;34397;51.176;6.738;2023-04-24T14:58:42;1.13;;;0.65;;
48550;SDS011;34397;51.176;6.738;2023-04-24T15:01:14;2.15;;;0.68;;
48550;SDS011;34397;51.176;6.738;2023-04-24T15:03:45;3.35;;;0.93;;
48550;SDS011;34397;51.176;6.738;2023-04-24T15:06:17;2.17;;;0.80;;
48550;SDS011;34397;51.176;6.738;2023-04-24T15:11:21;2.42;;;0.90;;
48550;SDS011;34397;51.176;6.738;2023-04-24T15:13:55;1.63;;;0.68;;
48550;SDS011;34397;51.176;6.738;2023-04-24T15:16:27;2.63;;;0.70;;
48550;SDS011;34397;51.176;6.738;2023-04-24T15:18:59;1.33;;;0.60;;
48550;SDS011;34397;51.176;6.738;2023-04-24T15:21:31;2.28;;;0.80;;
48550;SDS011;34397;51.176;6.738;2023-04-24T15:24:04;3.60;;;0.90;;
48550;SDS011;34397;51.176;6.738;2023-04-24T15:29:09;2.10;;;0.80;;
48550;SDS011;34397;51.176;6.738;2023-04-24T15:31:40;4.72;;;1.33;;
48550;SDS011;34397;51.176;6.738;2023-04-24T15:34:12;4.32;;;0.90;;
48550;SDS011;34397;51.176;6.738;2023-04-24T15:36:44;2.83;;;0.90;;
48550;SDS011;34397;51.176;6.738;2023-04-24T15:39:16;3.60;;;1.08;;
48550;SDS011;34397;51.176;6.738;2023-04-24T15:41:49;3.50;;;1.00;;
48550;SDS011;34397;51.176;6.738;2023-04-24T15:44:33;2.70;;;0.90;;
48550;SDS011;34397;51.176;6.738;2023-04-24T15:47:05;2.13;;;0.70;;
48550;SDS011;34397;51.176;6.738;2023-04-24T15:49:37;4.13;;;0.90;;
48550;SDS011;34397;51.176;6.738;2023-04-24T15:52:09;2.78;;;1.00;;
48550;SDS011;34397;51.176;6.738;2023-04-24T15:54:49;2.35;;;0.77;;